sensor_id;sensor_type;location;lat;lon;timestamp;P1;durP1;ratioP1;P2;durP2;ratioP2
37267;SDS011;23154;52.542;13.362;2022-08-05T00:01:39;21.35;;;10.20;;
37267;SDS011;23154;52.542;13.362;2022-08-05T00:04:04;17.15;;;5.70;;
37267;SDS011;23154;52.542;13.362;2022-08-05T00:06:30;11.70;;;4.75;;
37267;SDS011;23154;52.542;13.362;2022-08-05T00:08:56;12.65;;;4.13;;
37267;SDS011;23154;52.542;13.362;2022-08-05T00:11:24;13.88;;;4.57;;
37267;SDS011;23154;52.542;13.362;2022-08-05T00:13:49;14.68;;;4.40;;
37267;SDS011;23154;52.542;13.362;2022-08-05T00:16:15;15.88;;;4.97;;
37267;SDS011;23154;52.542;13.362;2022-08-05T00:18:42;17.50;;;5.45;;
37267;SDS011;23154;52.542;13.362;2022-08-05T00:21:10;17.58;;;5.13;;
37267;SDS011;23154;52.542;13.362;2022-08-05T00:23:37;13.45;;;5.45;;
37267;SDS011;23154;52.542;13.362;2022-08-05T00:26:04;17.67;;;4.30;;
37267;SDS011;23154;52.542;13.362;2022-08-05T00:28:30;13.07;;;3.97;;
37267;SDS011;23154;52.542;13.362;2022-08-05T00:30:56;13.40;;;4.30;;
37267;SDS011;23154;52.542;13.362;2022-08-05T00:33:21;12.70;;;4.75;;
37267;SDS011;23154;52.542;13.362;2022-08-05T00:35:47;16.42;;;5.57;;
37267;SDS011;23154;52.542;13.362;2022-08-05T00:38:13;15.88;;;5.45;;
37267;SDS011;23154;52.542;13.362;2022-08-05T00:40:52;13.80;;;4.97;;
37267;SDS011;23154;52.542;13.362;2022-08-05T00:43:19;15.85;;;4.85;;
37267;SDS011;23154;52.542;13.362;2022-08-05T00:45:45;18.67;;;9.88;;
37267;SDS011;23154;52.542;13.362;2022-08-05T00:48:21;14.10;;;4.20;;
37267;SDS011;23154;52.542;13.362;2022-08-05T00:50:48;13.55;;;4.90;;
37267;SDS011;23154;52.542;13.362;2022-08-05T00:53:16;12.57;;;4.45;;
37267;SDS011;23154;52.542;13.362;2022-08-05T00:55:44;15.13;;;5.18;;
37267;SDS011;23154;52.542;13.362;2022-08-05T00:58:10;12.10;;;4.50;;
37267;SDS011;23154;52.542;13.362;2022-08-05T01:00:37;16.63;;;4.75;;
37267;SDS011;23154;52.542;13.362;2022-08-05T01:03:04;18.15;;;7.03;;
37267;SDS011;23154;52.542;13.362;2022-08-05T01:05:30;21.92;;;6.85;;
37267;SDS011;23154;52.542;13.362;2022-08-05T01:07:56;21.15;;;7.05;;
37267;SDS011;23154;52.542;13.362;2022-08-05T01:10:22;22.23;;;7.43;;
37267;SDS011;23154;52.542;13.362;2022-08-05T01:12:54;20.13;;;7.13;;
37267;SDS011;23154;52.542;13.362;2022-08-05T01:15:28;22.25;;;7.68;;
37267;SDS011;23154;52.542;13.362;2022-08-05T01:18:00;19.92;;;6.82;;
37267;SDS011;23154;52.542;13.362;2022-08-05T01:20:36;16.23;;;6.25;;
37267;SDS011;23154;52.542;13.362;2022-08-05T01:23:15;19.98;;;6.40;;
37267;SDS011;23154;52.542;13.362;2022-08-05T01:25:56;20.00;;;6.93;;
37267;SDS011;23154;52.542;13.362;2022-08-05T01:28:37;21.35;;;6.55;;
37267;SDS011;23154;52.542;13.362;2022-08-05T01:31:24;16.77;;;6.07;;
37267;SDS011;23154;52.542;13.362;2022-08-05T01:34:02;18.77;;;6.22;;
37267;SDS011;23154;52.542;13.362;2022-08-05T01:36:33;15.70;;;5.60;;
37267;SDS011;23154;52.542;13.362;2022-08-05T01:39:06;20.25;;;5.72;;
37267;SDS011;23154;52.542;13.362;2022-08-05T01:41:33;20.10;;;5.90;;
37267;SDS011;23154;52.542;13.362;2022-08-05T01:44:00;14.45;;;5.47;;
37267;SDS011;23154;52.542;13.362;2022-08-05T01:46:27;15.55;;;5.20;;
37267;SDS011;23154;52.542;13.362;2022-08-05T01:48:55;14.23;;;5.28;;
37267;SDS011;23154;52.542;13.362;2022-08-05T01:51:24;21.48;;;5.50;;
37267;SDS011;23154;52.542;13.362;2022-08-05T01:53:50;19.13;;;5.10;;
37267;SDS011;23154;52.542;13.362;2022-08-05T01:56:19;13.00;;;4.95;;
37267;SDS011;23154;52.542;13.362;2022-08-05T01:58:46;15.75;;;5.15;;
37267;SDS011;23154;52.542;13.362;2022-08-05T02:01:15;18.67;;;4.95;;
37267;SDS011;23154;52.542;13.362;2022-08-05T02:03:44;13.77;;;4.88;;
37267;SDS011;23154;52.542;13.362;2022-08-05T02:06:12;17.10;;;5.10;;
37267;SDS011;23154;52.542;13.362;2022-08-05T02:08:38;12.60;;;5.00;;
37267;SDS011;23154;52.542;13.362;2022-08-05T02:11:07;16.67;;;4.80;;
37267;SDS011;23154;52.542;13.362;2022-08-05T02:16:08;16.75;;;4.97;;
37267;SDS011;23154;52.542;13.362;2022-08-05T02:21:42;14.25;;;4.80;;
37267;SDS011;23154;52.542;13.362;2022-08-05T02:24:35;17.40;;;5.25;;
37267;SDS011;23154;52.542;13.362;2022-08-05T02:27:04;14.55;;;4.97;;
37267;SDS011;23154;52.542;13.362;2022-08-05T02:29:33;14.93;;;4.70;;
37267;SDS011;23154;52.542;13.362;2022-08-05T02:32:00;26.55;;;4.60;;
37267;SDS011;23154;52.542;13.362;2022-08-05T02:34:29;17.02;;;5.00;;
37267;SDS011;23154;52.542;13.362;2022-08-05T02:36:58;14.00;;;4.80;;
37267;SDS011;23154;52.542;13.362;2022-08-05T02:39:28;14.48;;;4.45;;
37267;SDS011;23154;52.542;13.362;2022-08-05T02:41:58;16.92;;;4.93;;
37267;SDS011;23154;52.542;13.362;2022-08-05T02:44:25;18.13;;;4.78;;
37267;SDS011;23154;52.542;13.362;2022-08-05T02:46:54;15.18;;;4.55;;
37267;SDS011;23154;52.542;13.362;2022-08-05T02:49:22;19.02;;;4.70;;
37267;SDS011;23154;52.542;13.362;2022-08-05T02:51:49;14.00;;;4.35;;
37267;SDS011;23154;52.542;13.362;2022-08-05T02:54:16;13.18;;;4.47;;
37267;SDS011;23154;52.542;13.362;2022-08-05T02:56:44;12.05;;;4.35;;
37267;SDS011;23154;52.542;13.362;2022-08-05T02:59:10;13.40;;;4.30;;
37267;SDS011;23154;52.542;13.362;2022-08-05T03:01:38;15.35;;;4.20;;
37267;SDS011;23154;52.542;13.362;2022-08-05T03:04:05;13.20;;;4.10;;
37267;SDS011;23154;52.542;13.362;2022-08-05T03:06:34;14.27;;;4.10;;
37267;SDS011;23154;52.542;13.362;2022-08-05T03:09:01;15.70;;;4.82;;
37267;SDS011;23154;52.542;13.362;2022-08-05T03:11:27;12.65;;;4.22;;
37267;SDS011;23154;52.542;13.362;2022-08-05T03:13:53;14.02;;;4.40;;
37267;SDS011;23154;52.542;13.362;2022-08-05T03:16:20;14.40;;;4.00;;
37267;SDS011;23154;52.542;13.362;2022-08-05T03:18:46;15.80;;;4.32;;
37267;SDS011;23154;52.542;13.362;2022-08-05T03:21:12;14.32;;;4.10;;
37267;SDS011;23154;52.542;13.362;2022-08-05T03:23:39;17.80;;;4.68;;
37267;SDS011;23154;52.542;13.362;2022-08-05T03:26:06;17.90;;;4.10;;
37267;SDS011;23154;52.542;13.362;2022-08-05T03:28:32;14.52;;;3.97;;
37267;SDS011;23154;52.542;13.362;2022-08-05T03:30:58;13.25;;;4.30;;
37267;SDS011;23154;52.542;13.362;2022-08-05T03:33:26;13.35;;;4.00;;
37267;SDS011;23154;52.542;13.362;2022-08-05T03:35:52;13.38;;;4.47;;
37267;SDS011;23154;52.542;13.362;2022-08-05T03:38:23;15.23;;;4.38;;
37267;SDS011;23154;52.542;13.362;2022-08-05T03:40:49;13.85;;;4.40;;
37267;SDS011;23154;52.542;13.362;2022-08-05T03:43:16;15.70;;;4.40;;
37267;SDS011;23154;52.542;13.362;2022-08-05T03:45:42;17.60;;;4.32;;
37267;SDS011;23154;52.542;13.362;2022-08-05T03:48:07;12.82;;;4.72;;
37267;SDS011;23154;52.542;13.362;2022-08-05T03:50:43;10.35;;;4.15;;
37267;SDS011;23154;52.542;13.362;2022-08-05T03:53:18;13.93;;;4.15;;
37267;SDS011;23154;52.542;13.362;2022-08-05T03:55:51;14.85;;;4.63;;
37267;SDS011;23154;52.542;13.362;2022-08-05T03:58:21;13.55;;;4.50;;
37267;SDS011;23154;52.542;13.362;2022-08-05T04:00:51;12.80;;;4.50;;
37267;SDS011;23154;52.542;13.362;2022-08-05T04:03:19;13.13;;;4.45;;
37267;SDS011;23154;52.542;13.362;2022-08-05T04:05:47;12.52;;;4.25;;
37267;SDS011;23154;52.542;13.362;2022-08-05T04:08:14;13.23;;;4.53;;
37267;SDS011;23154;52.542;13.362;2022-08-05T04:10:42;11.30;;;4.28;;
37267;SDS011;23154;52.542;13.362;2022-08-05T04:13:09;12.45;;;4.10;;
37267;SDS011;23154;52.542;13.362;2022-08-05T04:15:35;16.30;;;4.90;;
37267;SDS011;23154;52.542;13.362;2022-08-05T04:18:01;14.02;;;4.68;;
37267;SDS011;23154;52.542;13.362;2022-08-05T04:20:28;12.23;;;4.28;;
37267;SDS011;23154;52.542;13.362;2022-08-05T04:22:54;14.13;;;4.65;;
37267;SDS011;23154;52.542;13.362;2022-08-05T04:25:19;15.32;;;4.32;;
37267;SDS011;23154;52.542;13.362;2022-08-05T04:27:45;16.95;;;4.30;;
37267;SDS011;23154;52.542;13.362;2022-08-05T04:30:11;13.45;;;4.80;;
37267;SDS011;23154;52.542;13.362;2022-08-05T04:32:36;16.38;;;4.93;;
37267;SDS011;23154;52.542;13.362;2022-08-05T04:35:02;14.70;;;4.63;;
37267;SDS011;23154;52.542;13.362;2022-08-05T04:37:28;12.25;;;4.35;;
37267;SDS011;23154;52.542;13.362;2022-08-05T04:39:54;14.48;;;4.88;;
37267;SDS011;23154;52.542;13.362;2022-08-05T04:42:20;17.75;;;4.40;;
37267;SDS011;23154;52.542;13.362;2022-08-05T04:44:45;15.32;;;4.90;;
37267;SDS011;23154;52.542;13.362;2022-08-05T04:47:11;16.88;;;4.93;;
37267;SDS011;23154;52.542;13.362;2022-08-05T04:49:38;13.15;;;4.53;;
37267;SDS011;23154;52.542;13.362;2022-08-05T04:52:04;13.10;;;4.50;;
37267;SDS011;23154;52.542;13.362;2022-08-05T04:54:30;14.52;;;4.30;;
37267;SDS011;23154;52.542;13.362;2022-08-05T04:56:55;11.70;;;3.88;;
37267;SDS011;23154;52.542;13.362;2022-08-05T04:59:21;14.57;;;4.75;;
37267;SDS011;23154;52.542;13.362;2022-08-05T05:01:47;12.57;;;4.32;;
37267;SDS011;23154;52.542;13.362;2022-08-05T05:04:16;12.85;;;4.68;;
37267;SDS011;23154;52.542;13.362;2022-08-05T05:06:42;16.13;;;4.28;;
37267;SDS011;23154;52.542;13.362;2022-08-05T05:09:08;17.23;;;4.47;;
37267;SDS011;23154;52.542;13.362;2022-08-05T05:11:37;15.97;;;4.57;;
37267;SDS011;23154;52.542;13.362;2022-08-05T05:14:02;13.65;;;4.50;;
37267;SDS011;23154;52.542;13.362;2022-08-05T05:16:28;16.42;;;4.50;;
37267;SDS011;23154;52.542;13.362;2022-08-05T05:18:54;13.95;;;4.13;;
37267;SDS011;23154;52.542;13.362;2022-08-05T05:21:20;14.02;;;4.28;;
37267;SDS011;23154;52.542;13.362;2022-08-05T05:23:45;15.20;;;4.60;;
37267;SDS011;23154;52.542;13.362;2022-08-05T05:26:11;13.23;;;4.35;;
37267;SDS011;23154;52.542;13.362;2022-08-05T05:28:36;13.85;;;4.72;;
37267;SDS011;23154;52.542;13.362;2022-08-05T05:31:02;18.02;;;4.80;;
37267;SDS011;23154;52.542;13.362;2022-08-05T05:33:28;15.52;;;4.53;;
37267;SDS011;23154;52.542;13.362;2022-08-05T05:35:53;17.33;;;4.75;;
37267;SDS011;23154;52.542;13.362;2022-08-05T05:38:19;18.02;;;4.40;;
37267;SDS011;23154;52.542;13.362;2022-08-05T05:40:44;13.98;;;4.30;;
37267;SDS011;23154;52.542;13.362;2022-08-05T05:43:10;15.88;;;4.90;;
37267;SDS011;23154;52.542;13.362;2022-08-05T05:45:36;15.88;;;4.47;;
37267;SDS011;23154;52.542;13.362;2022-08-05T05:48:01;18.33;;;4.65;;
37267;SDS011;23154;52.542;13.362;2022-08-05T05:50:30;15.00;;;4.43;;
37267;SDS011;23154;52.542;13.362;2022-08-05T05:52:55;15.75;;;3.90;;
37267;SDS011;23154;52.542;13.362;2022-08-05T05:55:21;15.80;;;4.55;;
37267;SDS011;23154;52.542;13.362;2022-08-05T05:57:46;19.33;;;4.78;;
37267;SDS011;23154;52.542;13.362;2022-08-05T06:00:16;17.65;;;4.55;;
37267;SDS011;23154;52.542;13.362;2022-08-05T06:02:44;14.00;;;4.50;;
37267;SDS011;23154;52.542;13.362;2022-08-05T06:05:12;22.13;;;5.00;;
37267;SDS011;23154;52.542;13.362;2022-08-05T06:07:39;13.85;;;4.18;;
37267;SDS011;23154;52.542;13.362;2022-08-05T06:10:06;12.77;;;4.32;;
37267;SDS011;23154;52.542;13.362;2022-08-05T06:12:34;15.35;;;4.18;;
37267;SDS011;23154;52.542;13.362;2022-08-05T06:15:00;19.38;;;4.55;;
37267;SDS011;23154;52.542;13.362;2022-08-05T06:17:27;15.52;;;4.20;;
37267;SDS011;23154;52.542;13.362;2022-08-05T06:19:53;12.70;;;3.75;;
37267;SDS011;23154;52.542;13.362;2022-08-05T06:22:28;17.73;;;4.18;;
37267;SDS011;23154;52.542;13.362;2022-08-05T06:24:55;21.08;;;4.18;;
37267;SDS011;23154;52.542;13.362;2022-08-05T06:27:21;17.23;;;4.55;;
37267;SDS011;23154;52.542;13.362;2022-08-05T06:29:47;15.02;;;4.00;;
37267;SDS011;23154;52.542;13.362;2022-08-05T06:32:12;15.82;;;3.97;;
37267;SDS011;23154;52.542;13.362;2022-08-05T06:34:39;20.45;;;4.20;;
37267;SDS011;23154;52.542;13.362;2022-08-05T06:37:04;12.98;;;3.88;;
37267;SDS011;23154;52.542;13.362;2022-08-05T06:39:30;11.57;;;3.35;;
37267;SDS011;23154;52.542;13.362;2022-08-05T06:41:56;13.65;;;3.58;;
37267;SDS011;23154;52.542;13.362;2022-08-05T06:44:25;18.63;;;3.65;;
37267;SDS011;23154;52.542;13.362;2022-08-05T06:46:51;14.68;;;4.05;;
37267;SDS011;23154;52.542;13.362;2022-08-05T06:49:17;9.57;;;3.05;;
37267;SDS011;23154;52.542;13.362;2022-08-05T06:51:42;12.32;;;3.53;;
37267;SDS011;23154;52.542;13.362;2022-08-05T06:54:08;12.10;;;3.67;;
37267;SDS011;23154;52.542;13.362;2022-08-05T06:56:33;14.55;;;3.95;;
37267;SDS011;23154;52.542;13.362;2022-08-05T06:58:59;15.32;;;4.50;;
37267;SDS011;23154;52.542;13.362;2022-08-05T07:01:25;14.95;;;4.13;;
37267;SDS011;23154;52.542;13.362;2022-08-05T07:03:51;13.82;;;3.85;;
37267;SDS011;23154;52.542;13.362;2022-08-05T07:06:16;13.85;;;3.80;;
37267;SDS011;23154;52.542;13.362;2022-08-05T07:08:42;12.88;;;3.60;;
37267;SDS011;23154;52.542;13.362;2022-08-05T07:11:08;14.07;;;3.30;;
37267;SDS011;23154;52.542;13.362;2022-08-05T07:13:34;8.75;;;3.03;;
37267;SDS011;23154;52.542;13.362;2022-08-05T07:16:18;11.98;;;2.80;;
37267;SDS011;23154;52.542;13.362;2022-08-05T07:19:03;10.75;;;3.10;;
37267;SDS011;23154;52.542;13.362;2022-08-05T07:21:28;11.95;;;3.10;;
37267;SDS011;23154;52.542;13.362;2022-08-05T07:23:55;13.07;;;3.75;;
37267;SDS011;23154;52.542;13.362;2022-08-05T07:26:20;16.75;;;3.25;;
37267;SDS011;23154;52.542;13.362;2022-08-05T07:28:46;13.05;;;3.35;;
37267;SDS011;23154;52.542;13.362;2022-08-05T07:31:12;10.05;;;3.70;;
37267;SDS011;23154;52.542;13.362;2022-08-05T07:33:37;11.13;;;3.20;;
37267;SDS011;23154;52.542;13.362;2022-08-05T07:36:03;13.85;;;3.45;;
37267;SDS011;23154;52.542;13.362;2022-08-05T07:38:30;16.65;;;3.80;;
37267;SDS011;23154;52.542;13.362;2022-08-05T07:40:56;15.27;;;3.67;;
37267;SDS011;23154;52.542;13.362;2022-08-05T07:43:22;13.65;;;3.25;;
37267;SDS011;23154;52.542;13.362;2022-08-05T07:45:47;14.88;;;3.70;;
37267;SDS011;23154;52.542;13.362;2022-08-05T07:48:13;10.95;;;3.78;;
37267;SDS011;23154;52.542;13.362;2022-08-05T07:50:39;11.77;;;3.50;;
37267;SDS011;23154;52.542;13.362;2022-08-05T07:53:04;11.73;;;3.70;;
37267;SDS011;23154;52.542;13.362;2022-08-05T07:55:30;14.27;;;3.95;;
37267;SDS011;23154;52.542;13.362;2022-08-05T07:57:56;13.48;;;3.40;;
37267;SDS011;23154;52.542;13.362;2022-08-05T08:00:22;11.13;;;3.42;;
37267;SDS011;23154;52.542;13.362;2022-08-05T08:02:49;11.45;;;3.67;;
37267;SDS011;23154;52.542;13.362;2022-08-05T08:05:15;11.80;;;4.00;;
37267;SDS011;23154;52.542;13.362;2022-08-05T08:07:40;15.15;;;3.53;;
37267;SDS011;23154;52.542;13.362;2022-08-05T08:10:06;13.32;;;3.70;;
37267;SDS011;23154;52.542;13.362;2022-08-05T08:12:32;12.82;;;3.83;;
37267;SDS011;23154;52.542;13.362;2022-08-05T08:15:00;12.10;;;3.72;;
37267;SDS011;23154;52.542;13.362;2022-08-05T08:17:25;11.85;;;3.80;;
37267;SDS011;23154;52.542;13.362;2022-08-05T08:19:51;17.50;;;4.20;;
37267;SDS011;23154;52.542;13.362;2022-08-05T08:22:17;12.25;;;3.80;;
37267;SDS011;23154;52.542;13.362;2022-08-05T08:24:42;13.75;;;3.97;;
37267;SDS011;23154;52.542;13.362;2022-08-05T08:27:08;15.38;;;4.07;;
37267;SDS011;23154;52.542;13.362;2022-08-05T08:29:34;9.82;;;3.05;;
37267;SDS011;23154;52.542;13.362;2022-08-05T08:31:59;8.90;;;3.00;;
37267;SDS011;23154;52.542;13.362;2022-08-05T08:34:25;11.75;;;3.38;;
37267;SDS011;23154;52.542;13.362;2022-08-05T08:36:52;9.57;;;3.22;;
37267;SDS011;23154;52.542;13.362;2022-08-05T08:39:20;11.75;;;3.40;;
37267;SDS011;23154;52.542;13.362;2022-08-05T08:41:47;11.80;;;3.35;;
37267;SDS011;23154;52.542;13.362;2022-08-05T08:44:14;9.93;;;2.90;;
37267;SDS011;23154;52.542;13.362;2022-08-05T08:46:43;9.37;;;3.00;;
37267;SDS011;23154;52.542;13.362;2022-08-05T08:49:11;11.93;;;3.22;;
37267;SDS011;23154;52.542;13.362;2022-08-05T08:51:39;14.07;;;3.40;;
37267;SDS011;23154;52.542;13.362;2022-08-05T08:54:06;10.25;;;3.20;;
37267;SDS011;23154;52.542;13.362;2022-08-05T08:56:32;9.38;;;3.58;;
37267;SDS011;23154;52.542;13.362;2022-08-05T08:58:59;12.23;;;3.63;;
37267;SDS011;23154;52.542;13.362;2022-08-05T09:01:25;11.73;;;3.17;;
37267;SDS011;23154;52.542;13.362;2022-08-05T09:03:52;11.15;;;4.05;;
37267;SDS011;23154;52.542;13.362;2022-08-05T09:06:18;10.52;;;3.20;;
37267;SDS011;23154;52.542;13.362;2022-08-05T09:08:44;11.55;;;3.33;;
37267;SDS011;23154;52.542;13.362;2022-08-05T09:11:10;11.73;;;3.20;;
37267;SDS011;23154;52.542;13.362;2022-08-05T09:13:37;12.57;;;3.17;;
37267;SDS011;23154;52.542;13.362;2022-08-05T09:16:03;12.70;;;3.50;;
37267;SDS011;23154;52.542;13.362;2022-08-05T09:18:32;8.68;;;2.90;;
37267;SDS011;23154;52.542;13.362;2022-08-05T09:21:00;9.65;;;2.80;;
37267;SDS011;23154;52.542;13.362;2022-08-05T09:23:25;9.98;;;3.10;;
37267;SDS011;23154;52.542;13.362;2022-08-05T09:25:52;10.00;;;2.90;;
37267;SDS011;23154;52.542;13.362;2022-08-05T09:28:45;12.30;;;3.40;;
37267;SDS011;23154;52.542;13.362;2022-08-05T09:31:12;6.75;;;2.97;;
37267;SDS011;23154;52.542;13.362;2022-08-05T09:33:46;12.45;;;3.05;;
37267;SDS011;23154;52.542;13.362;2022-08-05T09:36:14;12.95;;;3.17;;
37267;SDS011;23154;52.542;13.362;2022-08-05T09:38:54;8.85;;;2.83;;
37267;SDS011;23154;52.542;13.362;2022-08-05T09:41:20;9.02;;;3.00;;
37267;SDS011;23154;52.542;13.362;2022-08-05T09:43:46;9.35;;;3.10;;
37267;SDS011;23154;52.542;13.362;2022-08-05T09:46:45;11.13;;;3.22;;
37267;SDS011;23154;52.542;13.362;2022-08-05T09:49:04;11.23;;;3.17;;
37267;SDS011;23154;52.542;13.362;2022-08-05T09:51:47;13.48;;;3.55;;
37267;SDS011;23154;52.542;13.362;2022-08-05T09:54:12;10.32;;;3.03;;
37267;SDS011;23154;52.542;13.362;2022-08-05T09:56:39;9.82;;;3.25;;
37267;SDS011;23154;52.542;13.362;2022-08-05T09:59:11;11.15;;;3.22;;
37267;SDS011;23154;52.542;13.362;2022-08-05T10:01:40;11.15;;;2.95;;
37267;SDS011;23154;52.542;13.362;2022-08-05T10:04:07;12.10;;;3.65;;
37267;SDS011;23154;52.542;13.362;2022-08-05T10:06:41;21.08;;;5.47;;
37267;SDS011;23154;52.542;13.362;2022-08-05T10:09:18;15.65;;;4.35;;
37267;SDS011;23154;52.542;13.362;2022-08-05T10:11:47;12.45;;;3.30;;
37267;SDS011;23154;52.542;13.362;2022-08-05T10:14:29;14.38;;;3.60;;
37267;SDS011;23154;52.542;13.362;2022-08-05T10:16:55;10.35;;;3.33;;
37267;SDS011;23154;52.542;13.362;2022-08-05T10:19:35;13.40;;;3.38;;
37267;SDS011;23154;52.542;13.362;2022-08-05T10:22:01;10.80;;;3.50;;
37267;SDS011;23154;52.542;13.362;2022-08-05T10:24:27;12.02;;;3.55;;
37267;SDS011;23154;52.542;13.362;2022-08-05T10:26:55;8.73;;;3.28;;
37267;SDS011;23154;52.542;13.362;2022-08-05T10:29:23;10.25;;;3.00;;
37267;SDS011;23154;52.542;13.362;2022-08-05T10:31:50;10.63;;;3.40;;
37267;SDS011;23154;52.542;13.362;2022-08-05T10:34:16;10.48;;;3.33;;
37267;SDS011;23154;52.542;13.362;2022-08-05T10:36:42;13.75;;;3.67;;
37267;SDS011;23154;52.542;13.362;2022-08-05T10:39:13;11.25;;;3.38;;
37267;SDS011;23154;52.542;13.362;2022-08-05T10:41:52;11.27;;;3.72;;
37267;SDS011;23154;52.542;13.362;2022-08-05T10:44:24;15.10;;;3.67;;
37267;SDS011;23154;52.542;13.362;2022-08-05T10:46:53;10.57;;;3.50;;
37267;SDS011;23154;52.542;13.362;2022-08-05T10:49:21;12.68;;;3.28;;
37267;SDS011;23154;52.542;13.362;2022-08-05T10:51:52;15.02;;;3.55;;
37267;SDS011;23154;52.542;13.362;2022-08-05T10:54:23;9.05;;;3.05;;
37267;SDS011;23154;52.542;13.362;2022-08-05T10:57:10;13.52;;;4.10;;
37267;SDS011;23154;52.542;13.362;2022-08-05T10:59:36;9.65;;;3.35;;
37267;SDS011;23154;52.542;13.362;2022-08-05T11:02:10;11.50;;;3.40;;
37267;SDS011;23154;52.542;13.362;2022-08-05T11:04:47;11.18;;;3.60;;
37267;SDS011;23154;52.542;13.362;2022-08-05T11:07:18;14.60;;;4.38;;
37267;SDS011;23154;52.542;13.362;2022-08-05T11:09:48;16.23;;;4.72;;
37267;SDS011;23154;52.542;13.362;2022-08-05T11:15:07;10.98;;;3.30;;
37267;SDS011;23154;52.542;13.362;2022-08-05T11:17:44;11.27;;;3.55;;
37267;SDS011;23154;52.542;13.362;2022-08-05T11:33:29;10.95;;;3.25;;
37267;SDS011;23154;52.542;13.362;2022-08-05T11:36:03;8.02;;;3.10;;
37267;SDS011;23154;52.542;13.362;2022-08-05T11:41:04;9.40;;;2.83;;
37267;SDS011;23154;52.542;13.362;2022-08-05T11:43:30;8.65;;;2.70;;
37267;SDS011;23154;52.542;13.362;2022-08-05T11:45:58;11.40;;;2.78;;
37267;SDS011;23154;52.542;13.362;2022-08-05T11:48:24;9.73;;;2.90;;
37267;SDS011;23154;52.542;13.362;2022-08-05T11:50:51;8.93;;;2.65;;
37267;SDS011;23154;52.542;13.362;2022-08-05T11:53:17;7.18;;;2.42;;
37267;SDS011;23154;52.542;13.362;2022-08-05T11:55:54;11.98;;;3.05;;
37267;SDS011;23154;52.542;13.362;2022-08-05T11:58:34;9.60;;;2.88;;
37267;SDS011;23154;52.542;13.362;2022-08-05T12:01:07;7.97;;;2.70;;
37267;SDS011;23154;52.542;13.362;2022-08-05T12:06:23;8.82;;;3.00;;
37267;SDS011;23154;52.542;13.362;2022-08-05T12:08:55;9.45;;;3.08;;
37267;SDS011;23154;52.542;13.362;2022-08-05T12:13:52;7.57;;;2.70;;
37267;SDS011;23154;52.542;13.362;2022-08-05T12:16:19;6.10;;;2.45;;
37267;SDS011;23154;52.542;13.362;2022-08-05T12:18:47;9.60;;;2.70;;
37267;SDS011;23154;52.542;13.362;2022-08-05T12:21:14;11.00;;;2.70;;
37267;SDS011;23154;52.542;13.362;2022-08-05T12:26:39;22.42;;;3.80;;
37267;SDS011;23154;52.542;13.362;2022-08-05T12:29:25;9.68;;;3.38;;
37267;SDS011;23154;52.542;13.362;2022-08-05T12:31:53;13.43;;;3.20;;
37267;SDS011;23154;52.542;13.362;2022-08-05T12:34:22;11.55;;;3.30;;
37267;SDS011;23154;52.542;13.362;2022-08-05T12:36:56;11.80;;;3.53;;
37267;SDS011;23154;52.542;13.362;2022-08-05T12:39:31;13.48;;;4.50;;
37267;SDS011;23154;52.542;13.362;2022-08-05T12:41:57;14.18;;;4.00;;
37267;SDS011;23154;52.542;13.362;2022-08-05T12:44:23;12.23;;;3.33;;
37267;SDS011;23154;52.542;13.362;2022-08-05T12:46:51;14.57;;;3.45;;
37267;SDS011;23154;52.542;13.362;2022-08-05T12:49:18;9.70;;;2.40;;
37267;SDS011;23154;52.542;13.362;2022-08-05T12:51:57;6.60;;;2.35;;
37267;SDS011;23154;52.542;13.362;2022-08-05T12:54:25;6.75;;;2.38;;
37267;SDS011;23154;52.542;13.362;2022-08-05T12:56:55;14.18;;;3.50;;
37267;SDS011;23154;52.542;13.362;2022-08-05T12:59:25;9.98;;;2.78;;
37267;SDS011;23154;52.542;13.362;2022-08-05T13:01:58;13.48;;;2.80;;
37267;SDS011;23154;52.542;13.362;2022-08-05T13:04:28;9.98;;;2.67;;
37267;SDS011;23154;52.542;13.362;2022-08-05T13:06:56;7.35;;;2.50;;
37267;SDS011;23154;52.542;13.362;2022-08-05T13:09:23;10.73;;;2.97;;
37267;SDS011;23154;52.542;13.362;2022-08-05T13:11:50;8.57;;;2.70;;
37267;SDS011;23154;52.542;13.362;2022-08-05T13:14:27;7.60;;;2.47;;
37267;SDS011;23154;52.542;13.362;2022-08-05T13:16:53;9.60;;;2.30;;
37267;SDS011;23154;52.542;13.362;2022-08-05T13:19:23;10.15;;;2.50;;
37267;SDS011;23154;52.542;13.362;2022-08-05T13:21:52;9.70;;;2.40;;
37267;SDS011;23154;52.542;13.362;2022-08-05T13:24:18;11.30;;;2.67;;
37267;SDS011;23154;52.542;13.362;2022-08-05T13:26:47;10.68;;;2.58;;
37267;SDS011;23154;52.542;13.362;2022-08-05T13:29:14;11.63;;;2.80;;
37267;SDS011;23154;52.542;13.362;2022-08-05T13:31:42;12.77;;;2.50;;
37267;SDS011;23154;52.542;13.362;2022-08-05T13:34:08;13.50;;;3.05;;
37267;SDS011;23154;52.542;13.362;2022-08-05T13:36:34;9.63;;;2.50;;
37267;SDS011;23154;52.542;13.362;2022-08-05T13:39:01;9.75;;;2.80;;
37267;SDS011;23154;52.542;13.362;2022-08-05T13:41:28;12.07;;;2.83;;
37267;SDS011;23154;52.542;13.362;2022-08-05T13:43:53;7.45;;;2.50;;
37267;SDS011;23154;52.542;13.362;2022-08-05T13:46:20;9.88;;;2.50;;
37267;SDS011;23154;52.542;13.362;2022-08-05T13:48:48;5.93;;;2.33;;
37267;SDS011;23154;52.542;13.362;2022-08-05T13:51:24;7.07;;;2.50;;
37267;SDS011;23154;52.542;13.362;2022-08-05T13:53:51;8.20;;;2.50;;
37267;SDS011;23154;52.542;13.362;2022-08-05T13:56:18;11.25;;;2.88;;
37267;SDS011;23154;52.542;13.362;2022-08-05T13:58:45;10.20;;;2.70;;
37267;SDS011;23154;52.542;13.362;2022-08-05T14:01:11;8.52;;;3.08;;
37267;SDS011;23154;52.542;13.362;2022-08-05T14:03:37;10.20;;;2.85;;
37267;SDS011;23154;52.542;13.362;2022-08-05T14:06:03;10.88;;;2.70;;
37267;SDS011;23154;52.542;13.362;2022-08-05T14:08:28;14.90;;;3.47;;
37267;SDS011;23154;52.542;13.362;2022-08-05T14:10:54;9.40;;;3.10;;
37267;SDS011;23154;52.542;13.362;2022-08-05T14:13:20;11.63;;;3.13;;
37267;SDS011;23154;52.542;13.362;2022-08-05T14:15:45;10.82;;;2.90;;
37267;SDS011;23154;52.542;13.362;2022-08-05T14:18:13;10.13;;;3.03;;
37267;SDS011;23154;52.542;13.362;2022-08-05T14:20:39;11.27;;;3.08;;
37267;SDS011;23154;52.542;13.362;2022-08-05T14:23:04;10.50;;;3.13;;
37267;SDS011;23154;52.542;13.362;2022-08-05T14:25:30;8.73;;;2.95;;
37267;SDS011;23154;52.542;13.362;2022-08-05T14:27:56;9.50;;;3.22;;
37267;SDS011;23154;52.542;13.362;2022-08-05T14:30:22;11.63;;;3.00;;
37267;SDS011;23154;52.542;13.362;2022-08-05T14:32:49;9.80;;;3.10;;
37267;SDS011;23154;52.542;13.362;2022-08-05T14:35:15;10.77;;;3.17;;
37267;SDS011;23154;52.542;13.362;2022-08-05T14:37:40;8.50;;;3.05;;
37267;SDS011;23154;52.542;13.362;2022-08-05T14:40:06;9.48;;;3.30;;
37267;SDS011;23154;52.542;13.362;2022-08-05T14:42:33;8.13;;;2.78;;
37267;SDS011;23154;52.542;13.362;2022-08-05T14:44:58;12.88;;;3.30;;
37267;SDS011;23154;52.542;13.362;2022-08-05T14:47:24;11.77;;;3.30;;
37267;SDS011;23154;52.542;13.362;2022-08-05T14:49:51;11.77;;;3.53;;
37267;SDS011;23154;52.542;13.362;2022-08-05T14:52:17;9.65;;;3.22;;
37267;SDS011;23154;52.542;13.362;2022-08-05T14:54:43;13.02;;;3.50;;
37267;SDS011;23154;52.542;13.362;2022-08-05T14:57:09;10.20;;;3.63;;
37267;SDS011;23154;52.542;13.362;2022-08-05T14:59:34;10.18;;;3.53;;
37267;SDS011;23154;52.542;13.362;2022-08-05T15:02:00;12.27;;;3.40;;